Time;durP1;ratioP1;P1;durP2;ratioP2;P2;SDS_P1;SDS_P2;PMS_P1;PMS_P2;Temp;Humidity;BMP_temperature;BMP_pressure;BME280_temperature;BME280_humidity;BME280_pressure;Samples;Min_cycle;Max_cycle;Signal;HPM_P1;HPM_P2
2023/03/30 00:02:02;;;;;;;14.53;3.10;;;11.90;41.10;;;;;;5025953;28;46566;-65
2023/03/30 00:04:33;;;;;;;14.60;2.33;;;11.90;41.50;;;;;;5025932;28;46360;-65
2023/03/30 00:06:59;;;;;;;13.47;3.20;;;11.80;41.50;;;;;;5026016;28;46410;-66
2023/03/30 00:09:29;;;;;;;10.10;2.97;;;11.80;41.50;;;;;;5029360;28;46347;-65
2023/03/30 00:11:55;;;;;;;12.33;2.57;;;11.80;41.80;;;;;;5026112;28;46419;-65
2023/03/30 00:14:28;;;;;;;15.00;2.90;;;11.70;41.90;;;;;;5029203;28;46410;-65
2023/03/30 00:16:55;;;;;;;18.40;2.30;;;11.70;42.10;;;;;;5024949;28;46519;-65
2023/03/30 00:19:21;;;;;;;10.90;2.30;;;11.60;42.20;;;;;;5035449;28;46401;-65
2023/03/30 00:21:48;;;;;;;10.97;2.27;;;11.60;42.30;;;;;;5030217;28;46491;-65
2023/03/30 00:24:14;;;;;;;8.83;2.00;;;11.50;42.40;;;;;;5027392;28;46437;-65
2023/03/30 00:26:40;;;;;;;17.03;3.07;;;11.50;42.50;;;;;;5030523;28;46582;-65
2023/03/30 00:29:06;;;;;;;14.87;3.20;;;11.50;42.40;;;;;;5028620;28;46484;-65
2023/03/30 00:31:31;;;;;;;10.37;2.77;;;11.50;42.40;;;;;;5031783;28;46737;-65
2023/03/30 00:33:57;;;;;;;14.43;2.23;;;11.50;42.30;;;;;;5026721;28;46895;-65
2023/03/30 00:36:22;;;;;;;14.43;2.80;;;11.60;42.40;;;;;;5026387;28;46547;-65
2023/03/30 00:38:48;;;;;;;15.40;2.47;;;11.60;42.30;;;;;;5028216;28;46438;-65
2023/03/30 00:41:14;;;;;;;11.33;2.97;;;11.60;42.40;;;;;;5031769;28;46431;-65
2023/03/30 00:44:02;;;;;;;12.00;2.80;;;11.70;42.20;;;;;;5032024;28;46278;-66
2023/03/30 00:46:32;;;;;;;10.03;2.90;;;11.70;42.10;;;;;;5034324;28;46514;-65
2023/03/30 00:49:04;;;;;;;11.00;2.43;;;11.70;41.90;;;;;;5031704;28;45816;-65
2023/03/30 00:51:34;;;;;;;14.10;2.47;;;11.70;41.90;;;;;;5031082;28;46370;-65
2023/03/30 00:54:11;;;;;;;23.97;2.50;;;11.90;41.60;;;;;;5029612;28;47723;-66
2023/03/30 00:56:38;;;;;;;15.93;3.13;;;12.00;41.30;;;;;;5032704;28;46490;-65
2023/03/30 00:59:03;;;;;;;11.60;2.80;;;12.10;41.10;;;;;;5028282;28;46434;-66
2023/03/30 01:01:37;;;;;;;13.53;3.03;;;12.20;40.90;;;;;;5035566;28;46416;-65
2023/03/30 01:04:04;;;;;;;13.90;2.77;;;12.30;40.60;;;;;;5031024;28;46472;-66
2023/03/30 01:06:31;;;;;;;10.00;2.30;;;12.30;40.50;;;;;;5030151;28;46450;-65
2023/03/30 01:08:57;;;;;;;15.20;2.70;;;12.40;40.60;;;;;;5034412;28;46449;-65
2023/03/30 01:11:25;;;;;;;14.47;2.50;;;12.40;40.70;;;;;;5033525;28;46569;-66
2023/03/30 01:13:58;;;;;;;10.23;2.40;;;12.50;40.70;;;;;;5030502;28;46774;-65
2023/03/30 01:16:30;;;;;;;16.37;3.10;;;12.60;40.80;;;;;;5033216;28;46536;-65
2023/03/30 01:19:17;;;;;;;11.23;2.97;;;12.70;41.00;;;;;;5032123;28;46363;-65
2023/03/30 01:21:57;;;;;;;11.43;2.50;;;12.70;40.50;;;;;;5031211;28;46382;-66
2023/03/30 01:25:05;;;;;;;16.43;3.17;;;12.80;40.50;;;;;;5030482;28;47107;-65
2023/03/30 01:27:48;;;;;;;14.90;3.13;;;12.80;40.30;;;;;;5024501;28;46557;-65
2023/03/30 01:30:42;;;;;;;11.17;2.50;;;12.80;40.40;;;;;;5030078;28;45837;-66
2023/03/30 01:33:16;;;;;;;16.93;3.80;;;12.80;40.50;;;;;;5029273;28;46402;-66
2023/03/30 01:36:12;;;;;;;19.00;3.00;;;12.80;40.40;;;;;;5033525;28;47417;-66
2023/03/30 01:38:52;;;;;;;15.10;2.67;;;12.80;40.50;;;;;;5026896;28;46516;-66
2023/03/30 01:41:33;;;;;;;16.37;2.43;;;12.90;40.50;;;;;;5026577;28;45836;-64
2023/03/30 01:43:59;;;;;;;16.10;2.60;;;12.90;40.40;;;;;;5027145;28;46502;-65
2023/03/30 01:46:51;;;;;;;15.13;2.97;;;12.90;40.60;;;;;;5031019;28;46445;-64
2023/03/30 01:49:31;;;;;;;19.83;3.33;;;12.90;40.70;;;;;;5028507;28;46464;-67
2023/03/30 01:52:05;;;;;;;20.07;2.60;;;13.00;40.70;;;;;;5027081;28;46623;-63
2023/03/30 01:54:36;;;;;;;13.33;3.17;;;13.00;40.60;;;;;;5025617;28;46495;-65
2023/03/30 01:57:13;;;;;;;19.03;3.03;;;13.00;40.50;;;;;;5028201;28;45976;-65
2023/03/30 02:00:11;;;;;;;11.23;2.27;;;13.10;40.50;;;;;;5027775;28;46440;-65
2023/03/30 02:02:40;;;;;;;18.00;3.10;;;13.20;40.50;;;;;;5030598;28;46821;-65
2023/03/30 02:05:07;;;;;;;17.10;3.10;;;13.40;40.80;;;;;;5030185;28;46532;-65
2023/03/30 02:07:35;;;;;;;17.67;2.67;;;13.30;40.90;;;;;;5030812;28;46494;-65
2023/03/30 02:10:04;;;;;;;11.03;2.20;;;13.20;41.00;;;;;;5030487;28;46854;-65
2023/03/30 02:12:31;;;;;;;12.70;3.07;;;13.30;41.10;;;;;;5028572;28;46428;-65
2023/03/30 02:15:01;;;;;;;14.97;2.90;;;13.30;41.40;;;;;;5030474;28;46752;-65
2023/03/30 02:17:28;;;;;;;17.33;2.90;;;13.30;41.20;;;;;;5032544;28;46418;-65
2023/03/30 02:19:56;;;;;;;23.33;3.30;;;13.40;41.00;;;;;;5030608;28;45824;-65
2023/03/30 02:22:25;;;;;;;23.07;3.47;;;13.40;40.80;;;;;;5027974;28;46481;-65
2023/03/30 02:24:54;;;;;;;11.63;2.93;;;13.40;40.80;;;;;;5027815;28;46338;-65
2023/03/30 02:27:21;;;;;;;13.40;2.87;;;13.50;40.70;;;;;;5029231;28;46461;-65
2023/03/30 02:29:47;;;;;;;12.13;2.97;;;13.50;40.60;;;;;;5027495;28;46362;-65
2023/03/30 02:32:26;;;;;;;15.37;3.83;;;13.50;40.70;;;;;;5028794;28;46400;-65
2023/03/30 02:35:07;;;;;;;9.27;2.63;;;13.50;40.90;;;;;;5029934;28;46334;-65
2023/03/30 02:37:48;;;;;;;17.13;3.40;;;13.50;41.00;;;;;;5028683;28;46711;-65
2023/03/30 02:40:27;;;;;;;16.50;2.90;;;13.50;40.80;;;;;;5027742;28;46446;-65
2023/03/30 02:42:59;;;;;;;10.73;2.77;;;13.60;40.70;;;;;;5031518;28;46343;-65
2023/03/30 02:45:51;;;;;;;18.20;2.60;;;13.60;40.60;;;;;;5027019;28;46369;-65
2023/03/30 02:48:50;;;;;;;13.53;2.80;;;13.60;40.70;;;;;;5025968;28;46355;-65
2023/03/30 02:51:55;;;;;;;17.53;2.60;;;13.60;40.80;;;;;;5027005;28;46437;-66
2023/03/30 02:54:28;;;;;;;8.60;2.70;;;13.50;40.80;;;;;;5028499;28;46300;-65
2023/03/30 02:57:15;;;;;;;19.63;2.53;;;13.50;41.10;;;;;;5027322;28;46380;-65
2023/03/30 02:59:47;;;;;;;14.80;3.13;;;13.40;41.50;;;;;;5024336;28;46196;-65
2023/03/30 03:02:20;;;;;;;14.63;3.30;;;13.40;41.60;;;;;;5028073;28;46417;-65
2023/03/30 03:04:48;;;;;;;14.83;2.90;;;13.30;41.40;;;;;;5028745;28;46354;-65
2023/03/30 03:07:14;;;;;;;17.67;2.80;;;13.00;42.20;;;;;;5028860;28;46618;-65
2023/03/30 03:09:40;;;;;;;17.57;3.00;;;12.90;43.90;;;;;;5027428;28;46298;-65
2023/03/30 03:12:06;;;;;;;20.37;3.10;;;12.80;44.30;;;;;;5024462;28;46295;-65
2023/03/30 03:14:32;;;;;;;16.93;3.40;;;12.80;45.10;;;;;;5027513;28;46461;-65
2023/03/30 03:16:58;;;;;;;22.13;3.07;;;12.80;44.80;;;;;;5024900;28;46353;-65
2023/03/30 03:19:23;;;;;;;18.23;3.30;;;12.80;45.00;;;;;;5028283;28;46353;-64
2023/03/30 03:21:50;;;;;;;20.70;3.33;;;12.80;45.20;;;;;;5027186;28;45741;-65
2023/03/30 03:24:17;;;;;;;16.47;3.10;;;12.80;45.20;;;;;;5032828;28;46498;-65
2023/03/30 03:26:43;;;;;;;16.73;3.40;;;12.90;46.10;;;;;;5027634;28;46617;-65
2023/03/30 03:29:09;;;;;;;15.43;2.40;;;13.00;44.60;;;;;;5026641;28;46389;-65
2023/03/30 03:31:34;;;;;;;15.63;3.43;;;13.00;44.60;;;;;;5030123;28;45780;-65
2023/03/30 03:34:00;;;;;;;12.97;2.73;;;12.90;44.90;;;;;;5027836;28;46426;-65
2023/03/30 03:36:26;;;;;;;22.00;3.40;;;12.90;45.40;;;;;;5030134;28;46307;-65
2023/03/30 03:38:52;;;;;;;15.37;3.47;;;12.80;45.60;;;;;;5027537;28;47236;-65
2023/03/30 03:41:18;;;;;;;12.43;3.00;;;12.80;45.90;;;;;;5026696;28;46768;-65
2023/03/30 03:43:43;;;;;;;21.53;3.83;;;12.70;46.20;;;;;;5024786;28;46200;-64
2023/03/30 03:46:09;;;;;;;11.90;3.73;;;12.70;46.70;;;;;;5028404;28;46508;-65
2023/03/30 03:48:37;;;;;;;14.20;3.07;;;12.60;47.10;;;;;;5023076;28;46386;-65
2023/03/30 03:51:03;;;;;;;30.57;4.47;;;12.50;47.70;;;;;;5027388;28;46558;-64
2023/03/30 03:53:28;;;;;;;14.27;3.30;;;12.40;48.40;;;;;;5024045;28;45815;-65
2023/03/30 03:55:54;;;;;;;22.07;3.43;;;12.30;49.00;;;;;;5032959;28;46483;-65
2023/03/30 03:58:20;;;;;;;20.93;3.70;;;12.30;49.70;;;;;;5030223;28;47025;-64
2023/03/30 04:00:46;;;;;;;12.70;3.03;;;12.30;50.10;;;;;;5031102;28;46410;-64
2023/03/30 04:03:12;;;;;;;17.33;3.90;;;12.30;50.40;;;;;;5030274;28;45946;-65
2023/03/30 04:05:38;;;;;;;10.77;3.43;;;12.30;50.80;;;;;;5031303;28;46376;-64
2023/03/30 04:08:04;;;;;;;15.93;2.43;;;12.30;51.20;;;;;;5026691;28;46618;-65
2023/03/30 04:10:30;;;;;;;21.37;4.03;;;12.20;51.50;;;;;;5033062;28;46385;-65
2023/03/30 04:12:57;;;;;;;14.90;3.27;;;12.30;51.80;;;;;;5028074;28;46559;-66
2023/03/30 04:15:24;;;;;;;17.13;3.50;;;12.20;52.20;;;;;;5024875;28;46509;-66
2023/03/30 04:17:56;;;;;;;11.57;3.43;;;12.20;52.70;;;;;;5025968;28;46407;-65
2023/03/30 04:20:23;;;;;;;17.47;3.70;;;12.20;53.60;;;;;;5026529;28;46482;-66
2023/03/30 04:22:49;;;;;;;23.20;3.70;;;12.10;53.60;;;;;;5030676;28;46362;-65
2023/03/30 04:25:14;;;;;;;23.00;3.27;;;12.10;53.60;;;;;;5027051;28;46660;-66
2023/03/30 04:27:43;;;;;;;17.23;3.93;;;12.10;55.00;;;;;;5026901;28;46395;-66
2023/03/30 04:30:10;;;;;;;14.60;3.03;;;12.00;54.60;;;;;;5031350;28;46386;-66
2023/03/30 04:32:37;;;;;;;25.90;3.80;;;12.00;54.80;;;;;;5026332;28;46272;-65
2023/03/30 04:35:09;;;;;;;13.90;3.17;;;12.00;55.20;;;;;;5030685;28;46354;-66
2023/03/30 04:37:37;;;;;;;15.80;3.17;;;12.00;55.50;;;;;;5029160;28;46983;-65
2023/03/30 04:40:06;;;;;;;13.33;3.40;;;12.00;55.90;;;;;;5026493;28;46307;-65
2023/03/30 04:42:36;;;;;;;20.20;3.20;;;12.00;56.10;;;;;;5028301;28;46423;-65
2023/03/30 04:45:06;;;;;;;17.13;3.47;;;12.00;56.00;;;;;;5026471;28;46299;-65
2023/03/30 04:47:33;;;;;;;16.10;3.33;;;12.10;56.00;;;;;;5027302;28;46425;-65
2023/03/30 04:49:59;;;;;;;8.93;2.87;;;12.10;55.70;;;;;;5026440;28;46503;-65
2023/03/30 04:52:26;;;;;;;13.33;4.30;;;12.00;55.70;;;;;;5025587;28;46416;-65
2023/03/30 04:54:51;;;;;;;11.10;2.70;;;12.00;56.40;;;;;;5028120;28;46435;-65
2023/03/30 04:57:17;;;;;;;16.17;3.10;;;12.00;57.00;;;;;;5024915;28;46496;-66
2023/03/30 04:59:43;;;;;;;13.80;3.47;;;12.00;57.60;;;;;;5028722;28;46488;-66
2023/03/30 05:02:11;;;;;;;18.23;3.30;;;11.90;59.30;;;;;;5029500;28;46314;-65
2023/03/30 05:04:38;;;;;;;11.77;3.43;;;11.90;59.60;;;;;;5027044;28;46444;-65
2023/03/30 05:07:05;;;;;;;16.53;3.70;;;11.90;60.00;;;;;;5028577;28;46335;-65
2023/03/30 05:09:30;;;;;;;20.50;3.60;;;11.90;60.20;;;;;;5028948;28;46433;-66
2023/03/30 05:11:56;;;;;;;16.53;3.33;;;11.90;60.80;;;;;;5034885;28;46473;-66
2023/03/30 05:14:22;;;;;;;20.00;3.70;;;11.90;61.20;;;;;;5030938;28;46440;-65
2023/03/30 05:16:47;;;;;;;12.03;3.37;;;11.90;61.70;;;;;;5028453;28;46335;-66
2023/03/30 05:19:13;;;;;;;19.50;3.90;;;11.80;62.50;;;;;;5033932;28;46489;-66
2023/03/30 05:21:38;;;;;;;15.63;3.00;;;11.80;62.60;;;;;;5027885;28;46439;-67
2023/03/30 05:24:04;;;;;;;17.50;2.93;;;11.80;62.90;;;;;;5026084;28;46507;-67
2023/03/30 05:26:30;;;;;;;18.90;3.73;;;11.80;63.50;;;;;;5028923;28;48044;-65
2023/03/30 05:28:56;;;;;;;19.03;3.57;;;11.70;64.20;;;;;;5029435;28;45877;-65
2023/03/30 05:31:22;;;;;;;24.30;3.73;;;11.70;64.70;;;;;;5028869;28;45858;-65
2023/03/30 05:33:47;;;;;;;20.80;4.23;;;11.70;64.70;;;;;;5031372;28;46427;-65
2023/03/30 05:36:13;;;;;;;14.77;3.30;;;11.70;66.00;;;;;;5027798;28;47294;-64
2023/03/30 05:38:39;;;;;;;9.97;3.63;;;11.70;66.00;;;;;;5030004;28;46388;-65
2023/03/30 05:41:05;;;;;;;21.23;3.70;;;11.70;66.00;;;;;;5030973;28;46429;-65
2023/03/30 05:43:34;;;;;;;18.53;3.23;;;11.80;66.10;;;;;;5033174;28;46674;-65
2023/03/30 05:46:01;;;;;;;20.00;3.43;;;11.80;65.70;;;;;;5027550;28;46474;-65
2023/03/30 05:48:27;;;;;;;18.13;3.63;;;11.90;65.10;;;;;;5031185;28;46196;-65
2023/03/30 05:50:53;;;;;;;24.83;6.53;;;12.00;64.80;;;;;;5027917;28;46462;-65
2023/03/30 05:53:18;;;;;;;17.60;6.03;;;12.10;64.50;;;;;;5028937;28;46593;-65
2023/03/30 05:55:47;;;;;;;27.53;5.53;;;12.20;64.00;;;;;;5031852;28;46141;-65
2023/03/30 05:58:13;;;;;;;13.43;4.10;;;12.30;63.70;;;;;;5025501;28;46390;-65
2023/03/30 06:00:40;;;;;;;14.70;5.00;;;12.30;63.40;;;;;;5028145;28;46347;-65
2023/03/30 06:03:08;;;;;;;15.97;3.60;;;12.30;63.50;;;;;;5025829;28;45908;-64
2023/03/30 06:05:42;;;;;;;15.70;3.40;;;12.30;63.50;;;;;;5029206;28;46432;-65
2023/03/30 06:08:09;;;;;;;14.93;3.60;;;12.30;63.20;;;;;;5030223;28;46358;-65
2023/03/30 06:10:35;;;;;;;17.07;3.43;;;12.40;63.30;;;;;;5029325;28;46592;-65
2023/03/30 06:13:02;;;;;;;15.60;3.57;;;12.40;63.40;;;;;;5027976;28;46421;-65
2023/03/30 06:15:27;;;;;;;9.87;3.60;;;12.40;63.70;;;;;;5027035;28;46479;-64
2023/03/30 06:17:53;;;;;;;10.13;3.40;;;12.50;63.80;;;;;;5030156;28;46439;-65
2023/03/30 06:20:20;;;;;;;14.87;3.60;;;12.50;63.60;;;;;;5032584;28;46466;-65
2023/03/30 06:22:50;;;;;;;17.17;4.60;;;12.50;63.50;;;;;;5033152;28;45942;-64
2023/03/30 06:25:17;;;;;;;14.97;4.77;;;12.60;63.10;;;;;;5025959;28;46612;-65
2023/03/30 06:27:43;;;;;;;22.33;5.23;;;12.60;63.30;;;;;;5030736;28;46452;-65
2023/03/30 06:30:10;;;;;;;16.47;3.03;;;12.60;63.40;;;;;;5029619;28;46368;-64
2023/03/30 06:32:36;;;;;;;18.83;3.27;;;12.50;63.90;;;;;;5026689;28;46266;-68
2023/03/30 06:35:05;;;;;;;14.77;3.70;;;12.40;64.50;;;;;;5027260;28;46687;-67
2023/03/30 06:37:31;;;;;;;17.73;3.33;;;12.40;64.90;;;;;;5026707;28;46421;-66
2023/03/30 06:39:57;;;;;;;16.20;3.20;;;12.40;65.10;;;;;;5029265;28;45946;-68
2023/03/30 06:42:26;;;;;;;13.00;3.43;;;12.40;65.20;;;;;;5029261;28;46654;-65
2023/03/30 06:44:51;;;;;;;16.53;4.07;;;12.50;65.20;;;;;;5027421;28;46522;-65
2023/03/30 06:47:18;;;;;;;12.90;3.47;;;12.60;64.80;;;;;;5027534;28;46545;-65
2023/03/30 06:49:43;;;;;;;21.50;4.03;;;12.70;65.10;;;;;;5028475;28;46430;-66
2023/03/30 06:52:10;;;;;;;12.17;2.80;;;12.80;64.70;;;;;;5032271;28;46496;-66
2023/03/30 06:54:36;;;;;;;14.43;2.83;;;12.90;64.50;;;;;;5027089;28;47044;-65
2023/03/30 06:57:01;;;;;;;15.53;3.87;;;13.00;64.40;;;;;;5028949;28;46451;-66
2023/03/30 06:59:27;;;;;;;10.43;2.73;;;13.10;64.50;;;;;;5024202;28;46488;-66
2023/03/30 07:01:52;;;;;;;16.20;3.43;;;13.20;63.90;;;;;;5028651;28;46415;-66
2023/03/30 07:04:18;;;;;;;15.10;3.20;;;13.30;63.90;;;;;;5027277;28;47688;-66
2023/03/30 07:06:44;;;;;;;10.13;2.73;;;13.30;63.90;;;;;;5029997;28;46674;-66
2023/03/30 07:09:09;;;;;;;11.60;3.27;;;13.30;63.90;;;;;;5029953;28;46455;-67
2023/03/30 07:11:35;;;;;;;17.67;3.13;;;13.20;64.40;;;;;;5029881;28;46606;-66
2023/03/30 07:14:01;;;;;;;12.90;3.10;;;13.20;64.60;;;;;;5031168;28;46356;-67
2023/03/30 07:16:26;;;;;;;17.37;4.07;;;13.10;64.70;;;;;;5038723;28;47289;-70
2023/03/30 07:18:52;;;;;;;15.77;2.90;;;13.00;65.30;;;;;;5025451;28;46595;-67
2023/03/30 07:21:18;;;;;;;12.17;3.10;;;13.00;65.90;;;;;;5027856;28;46443;-67
2023/03/30 07:23:44;;;;;;;17.50;2.87;;;12.90;66.30;;;;;;5027974;28;46635;-68
2023/03/30 07:26:10;;;;;;;9.03;2.90;;;12.80;66.90;;;;;;5026744;28;45895;-67
2023/03/30 07:28:39;;;;;;;16.23;3.00;;;12.80;67.00;;;;;;5027216;28;46363;-65
2023/03/30 07:31:07;;;;;;;12.87;2.87;;;12.80;67.00;;;;;;5027283;28;46397;-67
2023/03/30 07:33:33;;;;;;;14.30;2.90;;;12.80;67.10;;;;;;5028786;28;46197;-66
2023/03/30 07:35:58;;;;;;;10.60;4.93;;;12.90;67.00;;;;;;5027643;28;46444;-67
2023/03/30 07:38:24;;;;;;;13.43;2.60;;;13.00;66.50;;;;;;5029223;28;46474;-66
2023/03/30 07:40:50;;;;;;;18.33;3.60;;;13.10;65.90;;;;;;5024589;28;46840;-66
2023/03/30 07:43:16;;;;;;;16.43;2.70;;;13.20;65.30;;;;;;5029570;28;46833;-67
2023/03/30 07:45:41;;;;;;;8.40;2.57;;;13.30;64.70;;;;;;5032594;28;45874;-67
2023/03/30 07:48:07;;;;;;;14.60;3.37;;;13.30;64.40;;;;;;5032344;28;46289;-64
2023/03/30 07:50:32;;;;;;;13.00;2.63;;;13.30;64.10;;;;;;5029571;28;45862;-66
2023/03/30 07:52:58;;;;;;;11.77;2.23;;;13.40;63.60;;;;;;5027243;28;46761;-68
2023/03/30 07:55:24;;;;;;;12.80;2.93;;;13.50;63.00;;;;;;5026491;28;46416;-68
2023/03/30 07:57:50;;;;;;;10.30;2.70;;;13.70;62.20;;;;;;5025046;28;46638;-67
2023/03/30 08:00:16;;;;;;;11.40;2.93;;;13.90;61.20;;;;;;5023989;28;46322;-68
2023/03/30 08:02:41;;;;;;;10.20;3.20;;;14.20;60.10;;;;;;5031886;28;48304;-67
2023/03/30 08:05:08;;;;;;;10.60;2.70;;;14.40;59.00;;;;;;5025677;28;47094;-67
2023/03/30 08:07:35;;;;;;;15.10;2.33;;;14.50;58.20;;;;;;5024537;28;45910;-64
2023/03/30 08:10:01;;;;;;;14.70;3.47;;;14.60;59.00;;;;;;5029640;28;46420;-65
2023/03/30 08:12:26;;;;;;;19.07;3.40;;;14.50;57.80;;;;;;5031202;28;47194;-62
2023/03/30 08:14:54;;;;;;;17.37;4.40;;;14.50;57.80;;;;;;5027987;28;46452;-63
2023/03/30 08:17:20;;;;;;;13.30;3.70;;;14.60;57.50;;;;;;5025725;28;45836;-65
2023/03/30 08:19:45;;;;;;;17.43;3.27;;;14.60;57.20;;;;;;5022805;28;46394;-65
2023/03/30 08:22:11;;;;;;;12.30;2.63;;;14.70;57.20;;;;;;5024648;28;46440;-64
2023/03/30 08:24:36;;;;;;;11.97;3.20;;;14.70;56.80;;;;;;5027953;28;46515;-67
2023/03/30 08:27:02;;;;;;;16.50;2.40;;;14.70;56.40;;;;;;5028621;28;46513;-66
2023/03/30 08:29:30;;;;;;;12.43;3.70;;;14.80;56.10;;;;;;5028939;28;46500;-66
2023/03/30 08:31:56;;;;;;;10.33;2.50;;;14.90;56.20;;;;;;5025901;28;46336;-67
2023/03/30 08:34:22;;;;;;;13.30;2.90;;;14.90;56.10;;;;;;5019980;28;46427;-65
2023/03/30 08:36:47;;;;;;;9.83;2.60;;;14.90;56.20;;;;;;5026993;28;46359;-64
2023/03/30 08:39:14;;;;;;;14.53;2.70;;;14.90;56.10;;;;;;5022798;28;46482;-66
2023/03/30 08:42:00;;;;;;;9.77;3.00;;;15.20;55.70;;;;;;5037679;28;48116;-65
2023/03/30 08:44:32;;;;;;;14.77;3.30;;;15.30;54.60;;;;;;5043741;28;46394;-65
2023/03/30 08:47:01;;;;;;;15.80;3.90;;;15.40;54.20;;;;;;5041409;28;46485;-65
2023/03/30 08:49:28;;;;;;;12.43;2.97;;;15.50;54.00;;;;;;5038374;28;46611;-65
2023/03/30 08:51:55;;;;;;;17.10;3.10;;;15.80;53.60;;;;;;5040290;28;46771;-65
2023/03/30 08:54:24;;;;;;;11.80;2.30;;;16.00;52.80;;;;;;5041812;28;46165;-65
2023/03/30 08:57:14;;;;;;;13.53;3.23;;;16.20;52.30;;;;;;5041758;28;46448;-64
2023/03/30 09:00:03;;;;;;;12.27;3.13;;;16.30;52.30;;;;;;5042932;28;47080;-64
2023/03/30 09:02:38;;;;;;;11.33;3.43;;;16.30;52.30;;;;;;5038593;28;46934;-64
2023/03/30 09:05:20;;;;;;;17.93;4.03;;;16.60;53.20;;;;;;5042493;28;46420;-63
2023/03/30 09:07:58;;;;;;;14.97;3.13;;;16.90;51.30;;;;;;5034857;28;46661;-64
2023/03/30 09:10:27;;;;;;;13.10;3.00;;;17.10;50.40;;;;;;5040859;28;46472;-64
2023/03/30 09:12:59;;;;;;;13.80;3.60;;;17.20;50.20;;;;;;5039054;28;47314;-64
2023/03/30 09:15:39;;;;;;;14.97;3.47;;;17.10;50.00;;;;;;5028912;28;46437;-66
2023/03/30 09:18:23;;;;;;;17.47;3.40;;;17.20;49.90;;;;;;5028702;28;46480;-66
2023/03/30 09:20:51;;;;;;;24.07;3.90;;;17.10;48.90;;;;;;5028928;28;46768;-65
2023/03/30 09:23:17;;;;;;;14.37;3.13;;;17.20;49.20;;;;;;5033312;28;48325;-64
2023/03/30 09:26:03;;;;;;;19.83;4.17;;;17.40;47.70;;;;;;5031872;28;46444;-65
2023/03/30 09:28:40;;;;;;;17.83;3.07;;;17.60;47.40;;;;;;5030583;28;46425;-64
2023/03/30 09:31:15;;;;;;;11.40;3.00;;;17.50;46.90;;;;;;5036616;28;46468;-65
2023/03/30 09:33:51;;;;;;;16.47;4.33;;;17.50;46.10;;;;;;5033083;28;46396;-65
2023/03/30 09:36:30;;;;;;;23.17;3.13;;;17.30;45.10;;;;;;5033277;28;46492;-66
2023/03/30 09:38:55;;;;;;;17.73;2.97;;;16.90;44.90;;;;;;5031395;28;45854;-66
2023/03/30 09:41:41;;;;;;;16.97;3.07;;;16.90;44.80;;;;;;5032118;28;46520;-66
2023/03/30 09:44:17;;;;;;;19.27;3.20;;;16.90;44.80;;;;;;5031252;28;46479;-65
2023/03/30 09:46:43;;;;;;;9.60;2.60;;;17.10;45.00;;;;;;5035542;28;47352;-65
2023/03/30 09:49:14;;;;;;;13.63;2.77;;;17.30;45.20;;;;;;5034782;28;46764;-65
2023/03/30 09:52:19;;;;;;;13.83;2.83;;;17.50;45.40;;;;;;5030993;28;46480;-66
2023/03/30 09:54:45;;;;;;;11.77;2.43;;;17.40;44.20;;;;;;5020296;28;46596;-64
2023/03/30 09:57:22;;;;;;;17.33;3.23;;;17.00;44.40;;;;;;5036509;28;46430;-65
2023/03/30 09:59:48;;;;;;;18.53;2.90;;;16.70;44.60;;;;;;5034807;28;46514;-67
2023/03/30 10:02:17;;;;;;;12.93;2.77;;;16.50;44.40;;;;;;5036678;28;46452;-66
2023/03/30 10:04:51;;;;;;;25.20;4.63;;;16.30;44.40;;;;;;5035611;28;46636;-67
2023/03/30 10:07:39;;;;;;;12.53;3.13;;;16.10;45.30;;;;;;5036001;28;45768;-67
2023/03/30 10:10:26;;;;;;;10.60;2.60;;;16.10;45.70;;;;;;5035691;28;46504;-66
2023/03/30 10:13:01;;;;;;;9.57;2.53;;;16.30;45.70;;;;;;5036645;28;46418;-66
2023/03/30 10:15:30;;;;;;;14.03;3.57;;;16.30;45.50;;;;;;5036137;28;46661;-66
2023/03/30 10:18:00;;;;;;;22.43;8.60;;;16.20;46.00;;;;;;5034218;28;46849;-66
2023/03/30 10:20:38;;;;;;;24.53;5.80;;;16.00;46.30;;;;;;5036294;28;46499;-66
2023/03/30 10:23:17;;;;;;;11.10;2.90;;;15.90;46.70;;;;;;5035615;28;46460;-66
2023/03/30 10:25:48;;;;;;;14.47;3.93;;;15.90;47.20;;;;;;5037046;28;47075;-66
2023/03/30 10:28:25;;;;;;;14.47;4.83;;;16.00;47.30;;;;;;5032968;28;46421;-66
2023/03/30 10:30:54;;;;;;;10.53;3.07;;;16.10;46.80;;;;;;5036749;28;46515;-67
2023/03/30 10:33:20;;;;;;;14.83;3.03;;;16.40;46.70;;;;;;5035926;28;46418;-66
2023/03/30 10:35:47;;;;;;;17.53;3.87;;;16.30;46.50;;;;;;5032571;28;46752;-66
2023/03/30 10:38:13;;;;;;;14.30;4.47;;;16.00;46.80;;;;;;5035389;28;46480;-67
2023/03/30 10:40:41;;;;;;;14.23;3.83;;;15.90;47.20;;;;;;5034077;28;46326;-66
2023/03/30 10:43:14;;;;;;;10.57;3.60;;;15.80;47.50;;;;;;5036192;28;46006;-66
2023/03/30 10:45:55;;;;;;;12.00;3.20;;;15.80;47.50;;;;;;5035011;28;46369;-66
2023/03/30 10:48:39;;;;;;;11.20;2.80;;;15.80;47.50;;;;;;5035341;28;46444;-66
2023/03/30 10:51:17;;;;;;;30.03;3.50;;;15.80;47.40;;;;;;5034337;28;46481;-66
2023/03/30 10:54:04;;;;;;;18.33;3.50;;;15.70;46.90;;;;;;5034418;28;46477;-65
2023/03/30 10:56:43;;;;;;;13.23;3.00;;;15.70;47.10;;;;;;5033529;28;48182;-64
2023/03/30 10:59:34;;;;;;;14.77;2.83;;;15.50;47.10;;;;;;5035301;28;46364;-65
2023/03/30 11:02:20;;;;;;;18.42;3.40;;;15.20;47.80;;;;;;5034156;28;46410;-64
2023/03/30 11:04:52;;;;;;;22.03;3.90;;;14.90;48.70;;;;;;5035666;28;46487;-66
2023/03/30 11:08:00;;;;;;;11.10;3.37;;;14.70;49.40;;;;;;5034668;28;46679;-66
2023/03/30 11:10:39;;;;;;;11.50;3.60;;;14.60;50.00;;;;;;5028469;28;46473;-66
2023/03/30 11:13:10;;;;;;;18.13;3.60;;;14.50;50.50;;;;;;5034110;28;46461;-66
2023/03/30 11:15:48;;;;;;;17.50;3.60;;;14.40;50.50;;;;;;5034642;28;46519;-68
2023/03/30 11:18:29;;;;;;;17.50;3.67;;;14.30;51.10;;;;;;5034792;28;47103;-66
2023/03/30 11:21:32;;;;;;;11.23;3.47;;;14.10;51.60;;;;;;5030152;28;45960;-66
2023/03/30 11:24:08;;;;;;;13.70;2.70;;;13.90;52.70;;;;;;5033775;28;46318;-69
2023/03/30 11:26:55;;;;;;;13.53;4.33;;;13.60;54.90;;;;;;5036258;28;46679;-68
2023/03/30 11:29:33;;;;;;;11.10;2.63;;;12.60;62.60;;;;;;5031909;28;47068;-65
2023/03/30 11:32:40;;;;;;;15.30;2.63;;;12.10;69.20;;;;;;5032035;28;46824;-65
2023/03/30 11:35:35;;;;;;;12.93;2.70;;;12.00;71.70;;;;;;5035876;28;46463;-65
2023/03/30 11:38:40;;;;;;;7.90;2.70;;;11.90;72.70;;;;;;5031324;28;45875;-65
2023/03/30 11:41:13;;;;;;;10.20;2.47;;;11.80;74.00;;;;;;5028348;28;46405;-65
2023/03/30 11:43:40;;;;;;;6.53;2.30;;;11.70;74.80;;;;;;5030242;28;46442;-67
2023/03/30 11:46:10;;;;;;;5.87;3.20;;;11.70;74.50;;;;;;5031672;28;46841;-65
2023/03/30 11:49:06;;;;;;;8.45;2.40;;;11.70;73.90;;;;;;5028019;28;46376;-66
2023/03/30 11:51:51;;;;;;;9.33;2.50;;;11.70;73.50;;;;;;5032105;28;46006;-65
2023/03/30 11:54:45;;;;;;;10.30;2.80;;;11.60;73.40;;;;;;5028648;28;46439;-65
2023/03/30 11:57:22;;;;;;;6.10;2.60;;;11.60;73.50;;;;;;5028000;28;45910;-65
2023/03/30 12:00:18;;;;;;;5.73;2.50;;;11.70;73.30;;;;;;5028478;28;46491;-65
2023/03/30 12:02:58;;;;;;;6.63;2.30;;;11.90;72.20;;;;;;5030820;28;46643;-65
2023/03/30 12:05:39;;;;;;;6.70;2.73;;;12.10;71.00;;;;;;5030709;28;46532;-66
2023/03/30 12:08:23;;;;;;;11.50;2.83;;;12.30;70.30;;;;;;5029994;28;46436;-65
2023/03/30 12:11:10;;;;;;;11.23;3.17;;;12.60;69.50;;;;;;5027640;28;46449;-65
2023/03/30 12:13:36;;;;;;;6.33;2.30;;;13.00;68.40;;;;;;5026706;28;47013;-65
2023/03/30 12:16:14;;;;;;;9.47;3.47;;;13.40;67.60;;;;;;5028804;28;45840;-65
2023/03/30 12:19:14;;;;;;;7.73;3.63;;;13.60;67.60;;;;;;5025824;28;46748;-64
2023/03/30 12:21:51;;;;;;;15.30;10.30;;;13.80;66.80;;;;;;5029240;28;46804;-66
2023/03/30 12:24:41;;;;;;;9.57;4.87;;;13.80;66.80;;;;;;5028471;28;46748;-66
2023/03/30 12:27:08;;;;;;;7.23;3.07;;;13.80;67.10;;;;;;5032926;28;46056;-65
2023/03/30 12:29:51;;;;;;;8.40;2.70;;;13.70;67.30;;;;;;5032033;28;46529;-68
2023/03/30 12:32:28;;;;;;;4.60;2.23;;;13.60;67.70;;;;;;5028879;28;46452;-67
2023/03/30 12:34:55;;;;;;;5.33;2.90;;;13.50;67.60;;;;;;5027982;28;47071;-66
2023/03/30 12:37:35;;;;;;;7.53;2.53;;;13.40;67.60;;;;;;5031221;28;46452;-66
2023/03/30 12:40:24;;;;;;;5.80;2.20;;;13.50;67.60;;;;;;5025009;28;46492;-67
2023/03/30 12:42:59;;;;;;;9.00;1.80;;;13.50;67.60;;;;;;5029973;28;46350;-66
2023/03/30 12:45:24;;;;;;;4.50;1.80;;;13.40;67.80;;;;;;5029095;28;48082;-66
2023/03/30 12:48:19;;;;;;;5.73;2.13;;;13.20;68.70;;;;;;5025583;28;46513;-66
2023/03/30 12:51:13;;;;;;;7.33;2.00;;;13.10;68.80;;;;;;5031664;28;46369;-66
2023/03/30 12:54:04;;;;;;;14.37;5.80;;;13.00;69.00;;;;;;5028973;28;46449;-65
2023/03/30 12:56:32;;;;;;;6.13;3.30;;;12.90;68.90;;;;;;5028359;28;46534;-64
2023/03/30 12:59:16;;;;;;;5.13;3.23;;;12.90;69.20;;;;;;5025185;28;46378;-65
2023/03/30 13:02:12;;;;;;;4.00;2.57;;;12.90;69.00;;;;;;5026518;28;46384;-66
2023/03/30 13:04:42;;;;;;;8.80;5.17;;;12.80;69.40;;;;;;5031148;28;46467;-65